createdAt,value
2018-12-17T00:00:36.875Z,0.50
2018-12-17T00:03:05.625Z,0.60
2018-12-17T00:05:34.340Z,0.60
2018-12-17T00:08:03.377Z,0.50
2018-12-17T00:10:31.927Z,0.60
2018-12-17T00:13:00.495Z,0.60
2018-12-17T00:15:29.059Z,0.60
2018-12-17T00:17:57.635Z,0.60
2018-12-17T00:20:26.231Z,0.60
2018-12-17T00:22:54.820Z,0.60
2018-12-17T00:25:23.431Z,0.60
2018-12-17T00:27:52.015Z,0.50
2018-12-17T00:30:20.598Z,0.60
2018-12-17T00:32:49.171Z,0.60
2018-12-17T00:35:17.734Z,0.60
2018-12-17T00:37:46.311Z,0.60
2018-12-17T00:40:15.027Z,0.60
2018-12-17T00:42:43.623Z,0.60
2018-12-17T00:45:12.183Z,0.60
2018-12-17T00:47:40.766Z,0.60
2018-12-17T00:50:09.376Z,0.60
2018-12-17T00:52:38.087Z,0.60
2018-12-17T00:55:06.888Z,0.60
2018-12-17T00:57:35.479Z,0.60
2018-12-17T01:00:05.435Z,0.70
2018-12-17T01:02:34.041Z,0.70
2018-12-17T01:05:03.141Z,0.70
2018-12-17T01:07:31.719Z,0.60
2018-12-17T01:10:00.283Z,0.60
2018-12-17T01:12:28.859Z,0.70
2018-12-17T01:14:57.401Z,0.70
2018-12-17T01:17:26.009Z,0.70
2018-12-17T01:19:54.597Z,0.70
2018-12-17T01:22:23.196Z,0.70
2018-12-17T01:24:51.776Z,0.70
2018-12-17T01:27:20.384Z,0.70
2018-12-17T01:29:48.960Z,0.70
2018-12-17T01:32:17.529Z,0.80
2018-12-17T01:34:46.112Z,0.80
2018-12-17T01:37:14.703Z,0.80
2018-12-17T01:39:43.272Z,0.70
2018-12-17T01:42:11.868Z,0.70
2018-12-17T01:44:40.519Z,0.70
2018-12-17T01:47:09.135Z,0.70
2018-12-17T01:49:37.713Z,0.70
2018-12-17T01:52:06.298Z,0.70
2018-12-17T01:54:34.843Z,0.70
2018-12-17T01:57:03.427Z,0.70
2018-12-17T01:59:32.000Z,0.80
2018-12-17T02:02:00.616Z,0.80
2018-12-17T02:04:29.421Z,0.80
2018-12-17T02:06:58.000Z,0.80
2018-12-17T02:09:26.575Z,0.80
2018-12-17T02:11:55.183Z,0.80
2018-12-17T02:14:23.755Z,0.80
2018-12-17T02:16:52.338Z,0.80
2018-12-17T02:19:20.911Z,0.80
2018-12-17T02:21:49.479Z,0.80
2018-12-17T02:24:18.212Z,0.90
2018-12-17T02:26:46.783Z,0.90
2018-12-17T02:29:15.389Z,0.90
2018-12-17T02:31:43.970Z,0.90
2018-12-17T02:34:12.547Z,0.90
2018-12-17T02:36:41.151Z,0.80
2018-12-17T02:39:09.711Z,0.80
2018-12-17T02:41:38.295Z,0.80
2018-12-17T02:44:07.112Z,0.80
2018-12-17T02:46:35.715Z,0.80
2018-12-17T02:49:04.313Z,0.80
2018-12-17T02:51:33.036Z,0.80
2018-12-17T02:54:01.714Z,0.80
2018-12-17T02:56:30.302Z,0.80
2018-12-17T02:58:58.872Z,0.90
2018-12-17T03:01:27.519Z,0.90
2018-12-17T03:03:56.067Z,0.80
2018-12-17T03:06:24.673Z,0.90
2018-12-17T03:08:53.255Z,0.90
2018-12-17T03:11:21.848Z,0.90
2018-12-17T03:13:50.410Z,0.90
2018-12-17T03:16:18.980Z,0.90
2018-12-17T03:18:47.543Z,0.90
2018-12-17T03:21:16.143Z,0.90
2018-12-17T03:23:44.692Z,0.90
2018-12-17T03:26:13.280Z,0.90
2018-12-17T03:28:41.823Z,0.90
2018-12-17T03:31:10.394Z,0.90
2018-12-17T03:33:38.975Z,0.90
2018-12-17T03:36:07.569Z,0.90
2018-12-17T03:38:36.172Z,0.90
2018-12-17T03:41:05.015Z,0.90
2018-12-17T03:43:33.574Z,0.90
2018-12-17T03:46:02.412Z,0.90
2018-12-17T03:48:30.975Z,0.90
2018-12-17T03:50:59.569Z,1.00
2018-12-17T03:53:28.141Z,0.90
2018-12-17T03:55:56.731Z,0.90
2018-12-17T03:58:25.275Z,0.90
2018-12-17T04:00:53.874Z,0.90
2018-12-17T04:03:22.470Z,0.90
2018-12-17T04:05:51.055Z,1.00
2018-12-17T04:08:19.588Z,1.00
2018-12-17T04:10:48.163Z,1.00
2018-12-17T04:13:16.708Z,0.90
2018-12-17T04:15:45.291Z,1.00
2018-12-17T04:18:13.835Z,0.90
2018-12-17T04:20:42.423Z,0.90
2018-12-17T04:23:10.972Z,1.00
2018-12-17T04:25:39.566Z,1.00
2018-12-17T04:28:10.196Z,1.00
2018-12-17T04:30:38.787Z,1.00
2018-12-17T04:33:07.328Z,1.00
2018-12-17T04:35:35.908Z,1.00
2018-12-17T04:38:04.468Z,1.00
2018-12-17T04:40:33.046Z,1.00
2018-12-17T04:43:01.616Z,1.00
2018-12-17T04:45:30.219Z,1.00
2018-12-17T04:47:58.784Z,1.00
2018-12-17T04:50:27.363Z,1.00
2018-12-17T04:52:55.923Z,1.00
2018-12-17T04:55:24.507Z,1.00
2018-12-17T04:57:53.327Z,1.00
2018-12-17T05:00:21.952Z,1.00
2018-12-17T05:02:50.551Z,1.00
2018-12-17T05:05:19.412Z,1.00
2018-12-17T05:07:47.972Z,1.00
2018-12-17T05:10:16.714Z,1.00
2018-12-17T05:12:45.286Z,1.00
2018-12-17T05:15:13.899Z,1.00
2018-12-17T05:17:42.447Z,1.00
2018-12-17T05:20:11.077Z,1.00
2018-12-17T05:22:39.631Z,1.00
2018-12-17T05:25:08.315Z,1.00
2018-12-17T05:27:36.931Z,1.10
2018-12-17T05:30:06.762Z,1.10
2018-12-17T05:32:35.324Z,1.10
2018-12-17T05:35:04.244Z,1.10
2018-12-17T05:37:32.815Z,1.00
2018-12-17T05:40:01.782Z,1.10
2018-12-17T05:42:30.499Z,1.20
2018-12-17T05:44:59.064Z,1.20
2018-12-17T05:47:27.644Z,1.20
2018-12-17T05:49:56.225Z,1.10
2018-12-17T05:52:24.825Z,1.10
2018-12-17T05:54:53.403Z,1.20
2018-12-17T05:57:21.982Z,1.20
2018-12-17T05:59:50.571Z,1.20
2018-12-17T06:02:19.131Z,1.20
2018-12-17T06:04:47.760Z,1.10
2018-12-17T06:07:16.329Z,1.10
2018-12-17T06:09:44.924Z,1.20
2018-12-17T06:12:13.527Z,1.20
2018-12-17T06:14:42.103Z,1.20
2018-12-17T06:17:10.665Z,1.20
2018-12-17T06:19:39.257Z,1.20
2018-12-17T06:22:07.834Z,1.20
2018-12-17T06:24:36.423Z,1.30
2018-12-17T06:27:05.025Z,1.30
2018-12-17T06:29:35.681Z,1.30
2018-12-17T06:32:04.343Z,1.30
2018-12-17T06:34:33.074Z,1.20
2018-12-17T06:37:01.644Z,1.30
2018-12-17T06:39:30.279Z,1.30
2018-12-17T06:41:58.870Z,1.20
2018-12-17T06:44:27.467Z,1.20
2018-12-17T06:47:02.379Z,1.20
2018-12-17T06:49:31.064Z,1.20
2018-12-17T06:51:59.859Z,1.20
2018-12-17T06:54:28.610Z,1.20
2018-12-17T06:56:57.288Z,1.20
2018-12-17T06:59:25.959Z,1.20
2018-12-17T07:01:54.523Z,1.20
2018-12-17T07:04:23.111Z,1.20
2018-12-17T07:06:51.670Z,1.20
2018-12-17T07:09:20.255Z,1.20
2018-12-17T07:11:48.815Z,1.20
2018-12-17T07:14:17.418Z,1.20
2018-12-17T07:16:46.000Z,1.20
2018-12-17T07:19:14.575Z,1.20
2018-12-17T07:21:43.272Z,1.30
2018-12-17T07:24:11.867Z,1.30
2018-12-17T07:26:40.455Z,1.20
2018-12-17T07:29:09.035Z,1.20
2018-12-17T07:31:40.416Z,1.20
2018-12-17T07:34:09.006Z,1.30
2018-12-17T07:36:37.571Z,1.30
2018-12-17T07:39:08.887Z,1.30
2018-12-17T07:41:37.744Z,1.40
2018-12-17T07:44:06.356Z,1.40
2018-12-17T07:46:34.921Z,1.40
2018-12-17T07:49:03.507Z,1.40
2018-12-17T07:51:32.087Z,1.40
2018-12-17T07:54:00.688Z,1.40
2018-12-17T07:56:29.231Z,1.40
2018-12-17T07:58:57.814Z,1.40
2018-12-17T08:01:26.368Z,1.50
2018-12-17T08:03:54.961Z,1.50
2018-12-17T08:06:23.525Z,1.60
2018-12-17T08:08:52.100Z,1.50
2018-12-17T08:11:20.681Z,1.60
2018-12-17T08:13:49.298Z,1.70
2018-12-17T08:16:17.877Z,1.70
2018-12-17T08:18:46.462Z,1.70
2018-12-17T08:21:15.027Z,1.70
2018-12-17T08:23:43.611Z,1.70
2018-12-17T08:26:12.159Z,1.80
2018-12-17T08:28:40.752Z,1.80
2018-12-17T08:31:09.333Z,1.90
2018-12-17T08:33:37.939Z,1.90
2018-12-17T08:36:06.561Z,2.00
2018-12-17T08:38:35.170Z,2.00
2018-12-17T08:41:03.748Z,2.00
2018-12-17T08:43:32.342Z,2.10
2018-12-17T08:46:00.904Z,2.20
2018-12-17T08:48:29.495Z,2.20
2018-12-17T08:50:58.059Z,2.20
2018-12-17T08:53:26.631Z,2.10
2018-12-17T08:55:55.200Z,2.20
2018-12-17T08:58:23.919Z,2.10
2018-12-17T09:00:52.512Z,2.10
2018-12-17T09:03:21.097Z,2.00
2018-12-17T09:05:49.674Z,2.00
2018-12-17T09:08:18.247Z,2.00
2018-12-17T09:10:46.830Z,2.00
2018-12-17T09:13:15.439Z,2.00
2018-12-17T09:15:44.031Z,2.00
2018-12-17T09:18:12.639Z,2.00
2018-12-17T09:20:41.231Z,2.00
2018-12-17T09:23:09.835Z,2.10
2018-12-17T09:25:38.519Z,2.10
2018-12-17T09:28:07.249Z,2.10
2018-12-17T09:30:41.300Z,2.10
2018-12-17T09:33:06.479Z,2.20
2018-12-17T09:35:35.039Z,2.20
2018-12-17T09:38:03.632Z,2.30
2018-12-17T09:40:32.339Z,2.30
2018-12-17T09:43:01.373Z,2.40
2018-12-17T09:45:29.931Z,2.40
2018-12-17T09:47:58.516Z,2.50
2018-12-17T09:50:27.108Z,2.50
2018-12-17T09:52:55.679Z,2.50
2018-12-17T09:55:24.231Z,2.60
2018-12-17T09:57:52.815Z,2.70
2018-12-17T10:00:25.433Z,2.70
2018-12-17T10:02:52.037Z,2.80
2018-12-17T10:05:20.587Z,2.80
2018-12-17T10:07:49.192Z,2.90
2018-12-17T10:10:17.751Z,2.90
2018-12-17T10:12:46.344Z,2.90
2018-12-17T10:15:14.911Z,2.90
2018-12-17T10:17:43.489Z,2.90
2018-12-17T10:20:12.425Z,2.90
2018-12-17T10:22:41.002Z,3.00
2018-12-17T10:25:09.607Z,3.10
2018-12-17T10:27:38.184Z,3.10
2018-12-17T10:30:07.293Z,3.30
2018-12-17T10:32:35.881Z,3.40
2018-12-17T10:35:04.820Z,3.40
2018-12-17T10:37:33.411Z,3.50
2018-12-17T10:40:01.978Z,3.50
2018-12-17T10:42:30.585Z,3.60
2018-12-17T10:44:59.205Z,3.60
2018-12-17T10:47:27.783Z,3.50
2018-12-17T10:49:56.351Z,3.50
2018-12-17T10:52:24.939Z,3.60
2018-12-17T10:54:53.496Z,3.70
2018-12-17T10:57:22.074Z,3.80
2018-12-17T10:59:50.632Z,3.70
2018-12-17T11:02:24.302Z,3.70
2018-12-17T11:04:56.795Z,3.70
2018-12-17T11:07:25.396Z,3.70
2018-12-17T11:09:53.971Z,3.70
2018-12-17T11:12:22.608Z,3.80
2018-12-17T11:14:51.172Z,3.90
2018-12-17T11:17:19.768Z,3.90
2018-12-17T11:19:48.356Z,3.90
2018-12-17T11:22:17.092Z,3.90
2018-12-17T11:24:45.647Z,3.90
2018-12-17T11:27:14.244Z,4.10
2018-12-17T11:29:42.863Z,4.30
2018-12-17T11:32:11.661Z,4.40
2018-12-17T11:34:40.420Z,4.40
2018-12-17T11:37:09.028Z,4.40
2018-12-17T11:39:37.576Z,4.50
2018-12-17T11:42:06.185Z,4.60
2018-12-17T11:44:34.731Z,4.80
2018-12-17T11:47:03.339Z,5.20
2018-12-17T11:49:31.904Z,5.70
2018-12-17T11:52:01.246Z,5.70
2018-12-17T11:54:30.016Z,5.80
2018-12-17T11:59:12.575Z,5.80
2018-12-17T12:01:41.286Z,5.80
2018-12-17T12:04:09.832Z,6.00
2018-12-17T12:06:38.446Z,6.50
2018-12-17T12:09:07.342Z,6.80
2018-12-17T12:11:35.951Z,6.80
2018-12-17T12:14:04.573Z,6.90
2018-12-17T12:16:33.153Z,7.00
2018-12-17T12:19:01.709Z,7.10
2018-12-17T12:21:30.304Z,7.00
2018-12-17T12:23:58.859Z,7.10
2018-12-17T12:26:27.453Z,6.80
2018-12-17T12:28:56.087Z,6.60
2018-12-17T12:31:24.667Z,6.60
2018-12-17T12:33:53.238Z,6.30
2018-12-17T12:36:21.834Z,6.30
2018-12-17T12:38:50.406Z,6.30
2018-12-17T12:41:18.995Z,5.90
2018-12-17T12:43:47.549Z,5.80
2018-12-17T12:46:16.344Z,5.60
2018-12-17T12:48:44.895Z,5.60
2018-12-17T12:51:13.470Z,5.70
2018-12-17T12:53:42.063Z,5.50
2018-12-17T12:56:10.648Z,5.60
2018-12-17T12:58:39.224Z,5.50
2018-12-17T13:01:07.997Z,5.50
2018-12-17T13:03:36.591Z,5.50
2018-12-17T13:06:11.701Z,5.50
2018-12-17T13:08:40.288Z,5.50
2018-12-17T13:11:08.857Z,5.50
2018-12-17T13:13:37.555Z,5.40
2018-12-17T13:16:06.135Z,5.40
2018-12-17T13:18:41.213Z,5.40
2018-12-17T13:21:09.827Z,5.40
2018-12-17T13:23:38.373Z,5.40
2018-12-17T13:26:07.000Z,5.20
2018-12-17T13:28:35.544Z,5.20
2018-12-17T13:31:04.144Z,5.30
2018-12-17T13:33:32.695Z,5.20
2018-12-17T13:36:01.290Z,5.20
2018-12-17T13:38:29.863Z,5.20
2018-12-17T13:40:58.423Z,5.20
2018-12-17T13:43:26.963Z,5.10
2018-12-17T13:45:55.547Z,5.10
2018-12-17T13:48:24.099Z,5.00
2018-12-17T13:50:52.689Z,4.90
2018-12-17T13:53:26.366Z,4.90
2018-12-17T13:55:54.945Z,4.90
2018-12-17T13:58:23.509Z,4.90
2018-12-17T14:00:52.103Z,4.80
2018-12-17T14:03:20.667Z,4.80
2018-12-17T14:05:49.258Z,4.70
2018-12-17T14:08:17.811Z,4.60
2018-12-17T14:10:51.279Z,4.60
2018-12-17T14:13:19.848Z,4.60
2018-12-17T14:15:51.308Z,4.60
2018-12-17T14:18:25.544Z,4.60
2018-12-17T14:20:59.488Z,4.50
2018-12-17T14:23:28.048Z,4.40
2018-12-17T14:25:56.644Z,4.40
2018-12-17T14:28:25.195Z,4.40
2018-12-17T14:30:53.908Z,4.40
2018-12-17T14:33:22.477Z,4.30
2018-12-17T14:35:56.488Z,4.30
2018-12-17T14:38:25.047Z,4.30
2018-12-17T14:40:53.689Z,4.30
2018-12-17T14:43:23.235Z,4.30
2018-12-17T14:45:51.814Z,4.30
2018-12-17T14:48:20.355Z,4.30
2018-12-17T14:50:48.940Z,4.30
2018-12-17T14:53:17.520Z,4.30
2018-12-17T14:55:46.121Z,4.20
2018-12-17T14:58:14.673Z,4.20
2018-12-17T15:00:43.238Z,4.20
2018-12-17T15:03:11.801Z,4.20
2018-12-17T15:05:40.387Z,4.10
2018-12-17T15:08:08.979Z,4.10
2018-12-17T15:10:37.559Z,4.10
2018-12-17T15:13:06.121Z,4.00
2018-12-17T15:15:34.707Z,4.00
2018-12-17T15:18:05.338Z,4.00
2018-12-17T15:20:33.904Z,4.10
2018-12-17T15:23:02.453Z,4.00
2018-12-17T15:25:31.053Z,4.00
2018-12-17T15:27:59.597Z,4.00
2018-12-17T15:30:28.167Z,4.00
2018-12-17T15:32:56.706Z,3.90
2018-12-17T15:35:25.311Z,4.00
2018-12-17T15:37:53.998Z,3.90
2018-12-17T15:40:22.782Z,4.00
2018-12-17T15:42:51.417Z,4.00
2018-12-17T15:45:19.985Z,3.90
2018-12-17T15:47:48.547Z,3.90
2018-12-17T15:50:17.163Z,3.90
2018-12-17T15:52:45.719Z,3.90
2018-12-17T15:55:14.304Z,3.90
2018-12-17T15:57:42.871Z,3.90
2018-12-17T16:00:15.780Z,3.80
2018-12-17T16:02:46.883Z,3.80
2018-12-17T16:05:18.153Z,3.70
2018-12-17T16:07:48.945Z,3.70
2018-12-17T16:10:19.829Z,3.60
2018-12-17T16:12:50.577Z,3.60
2018-12-17T16:15:21.861Z,3.50
2018-12-17T16:17:52.675Z,3.50
2018-12-17T16:20:23.422Z,3.50
2018-12-17T16:22:54.149Z,3.50
2018-12-17T16:25:25.148Z,3.50
2018-12-17T16:27:55.994Z,3.50
2018-12-17T16:30:26.662Z,3.40
2018-12-17T16:32:57.422Z,3.40
2018-12-17T16:35:28.126Z,3.40
2018-12-17T16:37:58.897Z,3.30
2018-12-17T16:40:29.736Z,3.30
2018-12-17T16:43:00.524Z,3.30
2018-12-17T16:45:31.153Z,3.30
2018-12-17T16:48:02.016Z,3.30
2018-12-17T16:50:32.692Z,3.30
2018-12-17T16:53:03.477Z,3.30
2018-12-17T16:55:34.547Z,3.20
2018-12-17T16:58:05.416Z,3.20
2018-12-17T17:00:36.156Z,3.20
2018-12-17T17:03:07.017Z,3.20
2018-12-17T17:05:37.652Z,3.20
2018-12-17T17:08:08.471Z,3.20
2018-12-17T17:10:39.059Z,3.20
2018-12-17T17:13:10.675Z,3.10
2018-12-17T17:15:41.338Z,3.10
2018-12-17T17:18:12.322Z,3.00
2018-12-17T17:20:43.030Z,3.00
2018-12-17T17:23:13.810Z,3.00
2018-12-17T17:25:42.462Z,3.00
2018-12-17T17:28:11.076Z,3.00
2018-12-17T17:30:39.624Z,3.00
2018-12-17T17:33:08.241Z,3.00
2018-12-17T17:35:36.800Z,3.00
2018-12-17T17:38:05.427Z,2.90
2018-12-17T17:40:34.036Z,2.90
2018-12-17T17:43:03.316Z,2.90
2018-12-17T17:45:31.902Z,2.90
2018-12-17T17:48:00.507Z,2.90
2018-12-17T17:50:29.259Z,2.90
2018-12-17T17:52:57.863Z,2.90
2018-12-17T17:55:26.477Z,2.90
2018-12-17T17:57:55.067Z,2.90
2018-12-17T18:00:23.675Z,3.00
2018-12-17T18:02:52.283Z,3.00
2018-12-17T18:05:20.852Z,3.00
2018-12-17T18:07:49.448Z,2.90
2018-12-17T18:10:18.180Z,2.90
2018-12-17T18:12:46.830Z,2.90
2018-12-17T18:15:15.411Z,2.90
2018-12-17T18:17:44.023Z,2.90
2018-12-17T18:20:12.905Z,2.90
2018-12-17T18:22:41.518Z,2.90
2018-12-17T18:25:10.224Z,2.80
2018-12-17T18:27:38.823Z,2.80
2018-12-17T18:30:07.712Z,2.70
2018-12-17T18:32:36.307Z,2.60
2018-12-17T18:35:05.051Z,2.50
2018-12-17T18:37:33.698Z,2.50
2018-12-17T18:40:02.429Z,2.50
2018-12-17T18:42:31.060Z,2.50
2018-12-17T18:44:59.652Z,2.60
2018-12-17T18:47:28.274Z,2.60
2018-12-17T18:49:56.845Z,2.80
2018-12-17T18:52:25.491Z,2.90
2018-12-17T18:54:54.043Z,3.00
2018-12-17T18:57:22.656Z,3.10
2018-12-17T18:59:51.234Z,3.10
2018-12-17T19:02:19.831Z,3.10
2018-12-17T19:04:49.167Z,3.00
2018-12-17T19:07:17.816Z,3.00
2018-12-17T19:09:46.413Z,2.90
2018-12-17T19:12:15.023Z,2.80
2018-12-17T19:14:43.609Z,2.80
2018-12-17T19:17:12.219Z,3.00
2018-12-17T19:19:41.262Z,2.90
2018-12-17T19:22:09.861Z,2.90
2018-12-17T19:24:38.463Z,2.90
2018-12-17T19:27:07.063Z,2.80
2018-12-17T19:29:35.660Z,2.90
2018-12-17T19:32:04.240Z,2.90
2018-12-17T19:34:32.804Z,2.80
2018-12-17T19:37:01.441Z,2.80
2018-12-17T19:39:30.015Z,2.70
2018-12-17T19:41:58.717Z,2.60
2018-12-17T19:44:27.360Z,2.60
2018-12-17T19:46:55.983Z,2.60
2018-12-17T19:49:24.547Z,2.70
2018-12-17T19:51:53.239Z,2.60
2018-12-17T19:54:21.811Z,2.60
2018-12-17T19:56:50.456Z,2.60
2018-12-17T19:59:19.028Z,2.60
2018-12-17T20:01:47.672Z,2.60
2018-12-17T20:04:16.512Z,2.60
2018-12-17T20:06:45.084Z,2.50
2018-12-17T20:09:20.037Z,2.50
2018-12-17T20:11:48.666Z,2.40
2018-12-17T20:14:17.247Z,2.30
2018-12-17T20:16:45.938Z,2.30
2018-12-17T20:19:14.570Z,2.30
2018-12-17T20:21:43.146Z,2.20
2018-12-17T20:24:11.731Z,2.10
2018-12-17T20:26:40.303Z,2.00
2018-12-17T20:29:08.897Z,2.00
2018-12-17T20:31:37.657Z,1.90
2018-12-17T20:34:06.308Z,1.90
2018-12-17T20:36:35.023Z,1.80
2018-12-17T20:39:05.059Z,1.90
2018-12-17T20:41:33.694Z,1.90
2018-12-17T20:44:02.254Z,1.90
2018-12-17T20:46:30.880Z,2.00
2018-12-17T20:48:59.476Z,2.10
2018-12-17T20:51:28.063Z,2.20
2018-12-17T20:53:56.729Z,2.30
2018-12-17T20:56:25.334Z,2.30
2018-12-17T20:58:53.922Z,2.40
2018-12-17T21:01:22.540Z,2.50
2018-12-17T21:03:51.136Z,2.50
2018-12-17T21:06:19.728Z,2.70
2018-12-17T21:08:48.299Z,2.70
2018-12-17T21:11:16.895Z,2.70
2018-12-17T21:13:45.470Z,2.80
2018-12-17T21:16:14.095Z,3.00
2018-12-17T21:18:42.703Z,3.00
2018-12-17T21:21:11.288Z,3.00
2018-12-17T21:23:40.032Z,3.00
2018-12-17T21:26:08.636Z,3.00
2018-12-17T21:28:37.219Z,2.90
2018-12-17T21:31:05.797Z,2.90
2018-12-17T21:33:34.345Z,2.90
2018-12-17T21:36:02.980Z,2.90
2018-12-17T21:38:31.543Z,2.80
2018-12-17T21:41:00.277Z,2.80
2018-12-17T21:43:28.919Z,2.80
2018-12-17T21:45:57.940Z,2.80
2018-12-17T21:48:26.543Z,2.70
2018-12-17T21:50:55.110Z,2.70
2018-12-17T21:53:23.735Z,2.70
2018-12-17T21:55:52.319Z,2.60
2018-12-17T21:58:20.867Z,2.50
2018-12-17T22:00:49.475Z,2.50
2018-12-17T22:03:18.089Z,2.50
2018-12-17T22:05:46.683Z,2.50
2018-12-17T22:08:15.269Z,2.50
2018-12-17T22:10:43.868Z,2.40
2018-12-17T22:13:12.463Z,2.40
2018-12-17T22:15:41.043Z,2.40
2018-12-17T22:18:10.036Z,2.50
2018-12-17T22:20:38.654Z,2.50
2018-12-17T22:23:07.202Z,2.50
2018-12-17T22:25:35.790Z,2.50
2018-12-17T22:28:04.472Z,2.50
2018-12-17T22:30:33.107Z,2.50
2018-12-17T22:33:01.668Z,2.50
2018-12-17T22:35:30.264Z,2.60
2018-12-17T22:37:58.845Z,2.60
2018-12-17T22:40:27.438Z,2.70
2018-12-17T22:42:55.984Z,2.70
2018-12-17T22:45:24.579Z,2.70
2018-12-17T22:47:56.851Z,2.80
2018-12-17T22:50:25.468Z,2.90
2018-12-17T22:52:54.032Z,3.00
2018-12-17T22:55:22.599Z,3.00
2018-12-17T22:57:51.161Z,3.10
2018-12-17T23:00:20.189Z,3.10
2018-12-17T23:02:48.828Z,3.20
2018-12-17T23:05:17.393Z,3.20
2018-12-17T23:07:45.976Z,3.20
2018-12-17T23:10:25.629Z,3.20
2018-12-17T23:13:05.437Z,3.20
2018-12-17T23:15:45.095Z,3.20
2018-12-17T23:18:12.551Z,3.20
2018-12-17T23:20:46.120Z,3.20
2018-12-17T23:23:14.816Z,3.30
2018-12-17T23:25:43.403Z,3.20
2018-12-17T23:28:12.007Z,3.20
2018-12-17T23:30:40.560Z,3.20
2018-12-17T23:33:09.136Z,3.20
2018-12-17T23:35:37.767Z,3.20
2018-12-17T23:38:06.376Z,3.10
2018-12-17T23:40:34.959Z,3.10
2018-12-17T23:43:03.712Z,3.10
2018-12-17T23:45:32.325Z,3.20
2018-12-17T23:48:00.899Z,3.20
2018-12-17T23:50:29.475Z,3.10
2018-12-17T23:52:58.047Z,3.10
2018-12-17T23:55:26.627Z,3.20
2018-12-17T23:57:55.415Z,3.10
